sensor_id;sensor_type;location;lat;lon;timestamp;pressure;altitude;pressure_sealevel;temperature;humidity
59531;BME280;45349;48.692;8.186;2022-12-18T00:02:01;99726.38;;;-7.27;100.00
59531;BME280;45349;48.692;8.186;2022-12-18T00:04:29;99728.03;;;-7.21;100.00
59531;BME280;45349;48.692;8.186;2022-12-18T00:06:56;99726.31;;;-7.20;100.00
59531;BME280;45349;48.692;8.186;2022-12-18T00:09:23;99724.63;;;-7.20;100.00
59531;BME280;45349;48.692;8.186;2022-12-18T00:11:51;99730.53;;;-7.19;100.00
59531;BME280;45349;48.692;8.186;2022-12-18T00:14:17;99722.06;;;-7.14;100.00
59531;BME280;45349;48.692;8.186;2022-12-18T00:16:45;99733.00;;;-7.08;100.00
59531;BME280;45349;48.692;8.186;2022-12-18T00:19:13;99727.06;;;-7.07;100.00
59531;BME280;45349;48.692;8.186;2022-12-18T00:21:41;99726.22;;;-7.08;100.00
59531;BME280;45349;48.692;8.186;2022-12-18T00:24:08;99722.81;;;-7.04;100.00
59531;BME280;45349;48.692;8.186;2022-12-18T00:26:36;99726.22;;;-7.06;100.00
59531;BME280;45349;48.692;8.186;2022-12-18T00:29:06;99733.84;;;-7.08;100.00
59531;BME280;45349;48.692;8.186;2022-12-18T00:31:33;99732.97;;;-7.04;100.00
59531;BME280;45349;48.692;8.186;2022-12-18T00:34:00;99739.75;;;-7.06;100.00
59531;BME280;45349;48.692;8.186;2022-12-18T00:36:28;99744.06;;;-7.16;100.00
59531;BME280;45349;48.692;8.186;2022-12-18T00:38:56;99746.63;;;-7.22;100.00
59531;BME280;45349;48.692;8.186;2022-12-18T00:41:24;99731.38;;;-7.17;100.00
59531;BME280;45349;48.692;8.186;2022-12-18T00:44:07;99736.53;;;-7.30;100.00
59531;BME280;45349;48.692;8.186;2022-12-18T00:46:35;99729.81;;;-7.35;100.00
59531;BME280;45349;48.692;8.186;2022-12-18T00:49:02;99723.91;;;-7.39;100.00
59531;BME280;45349;48.692;8.186;2022-12-18T00:51:29;99724.75;;;-7.37;100.00
59531;BME280;45349;48.692;8.186;2022-12-18T00:53:56;99734.03;;;-7.34;100.00
59531;BME280;45349;48.692;8.186;2022-12-18T00:56:22;99719.66;;;-7.34;100.00
59531;BME280;45349;48.692;8.186;2022-12-18T00:58:50;99712.06;;;-7.40;100.00
59531;BME280;45349;48.692;8.186;2022-12-18T01:01:18;99706.16;;;-7.37;100.00
59531;BME280;45349;48.692;8.186;2022-12-18T01:03:44;99701.03;;;-7.33;100.00
59531;BME280;45349;48.692;8.186;2022-12-18T01:06:13;99692.72;;;-7.47;100.00
59531;BME280;45349;48.692;8.186;2022-12-18T01:08:40;99696.88;;;-7.38;100.00
59531;BME280;45349;48.692;8.186;2022-12-18T01:11:07;99705.28;;;-7.35;100.00
59531;BME280;45349;48.692;8.186;2022-12-18T01:13:34;99705.28;;;-7.33;100.00
59531;BME280;45349;48.692;8.186;2022-12-18T01:16:01;99720.53;;;-7.36;100.00
59531;BME280;45349;48.692;8.186;2022-12-18T01:18:29;99733.19;;;-7.33;100.00
59531;BME280;45349;48.692;8.186;2022-12-18T01:20:57;99749.31;;;-7.41;100.00
59531;BME280;45349;48.692;8.186;2022-12-18T01:23:27;99750.19;;;-7.43;100.00
59531;BME280;45349;48.692;8.186;2022-12-18T01:25:53;99738.34;;;-7.49;100.00
59531;BME280;45349;48.692;8.186;2022-12-18T01:28:20;99731.63;;;-7.53;100.00
59531;BME280;45349;48.692;8.186;2022-12-18T01:30:46;99717.19;;;-7.45;100.00
59531;BME280;45349;48.692;8.186;2022-12-18T01:33:13;99730.69;;;-7.41;100.00
59531;BME280;45349;48.692;8.186;2022-12-18T01:35:45;99742.47;;;-7.32;100.00
59531;BME280;45349;48.692;8.186;2022-12-18T01:38:11;99748.38;;;-7.27;100.00
59531;BME280;45349;48.692;8.186;2022-12-18T01:40:38;99755.97;;;-7.24;100.00
59531;BME280;45349;48.692;8.186;2022-12-18T01:43:04;99744.22;;;-7.41;100.00
59531;BME280;45349;48.692;8.186;2022-12-18T01:45:31;99748.56;;;-7.57;100.00
59531;BME280;45349;48.692;8.186;2022-12-18T01:47:59;99743.50;;;-7.57;100.00
59531;BME280;45349;48.692;8.186;2022-12-18T01:50:30;99748.50;;;-7.46;100.00
59531;BME280;45349;48.692;8.186;2022-12-18T01:53:02;99749.34;;;-7.47;100.00
59531;BME280;45349;48.692;8.186;2022-12-18T01:55:34;99743.41;;;-7.43;100.00
59531;BME280;45349;48.692;8.186;2022-12-18T01:58:03;99737.50;;;-7.46;100.00
59531;BME280;45349;48.692;8.186;2022-12-18T02:00:30;99737.50;;;-7.46;100.00
59531;BME280;45349;48.692;8.186;2022-12-18T02:02:57;99747.69;;;-7.49;100.00
59531;BME280;45349;48.692;8.186;2022-12-18T02:05:31;99751.03;;;-7.49;100.00
59531;BME280;45349;48.692;8.186;2022-12-18T02:08:09;99755.25;;;-7.48;100.00
59531;BME280;45349;48.692;8.186;2022-12-18T02:10:43;99745.09;;;-7.43;100.00
59531;BME280;45349;48.692;8.186;2022-12-18T02:13:17;99736.66;;;-7.47;100.00
59531;BME280;45349;48.692;8.186;2022-12-18T02:15:51;99743.41;;;-7.44;100.00
59531;BME280;45349;48.692;8.186;2022-12-18T02:18:24;99744.31;;;-7.54;100.00
59531;BME280;45349;48.692;8.186;2022-12-18T02:20:57;99741.78;;;-7.54;100.00
59531;BME280;45349;48.692;8.186;2022-12-18T02:23:46;99743.53;;;-7.67;100.00
59531;BME280;45349;48.692;8.186;2022-12-18T02:26:26;99751.06;;;-7.52;100.00
59531;BME280;45349;48.692;8.186;2022-12-18T02:28:56;99748.47;;;-7.43;100.00
59531;BME280;45349;48.692;8.186;2022-12-18T02:31:29;99759.44;;;-7.37;100.00
59531;BME280;45349;48.692;8.186;2022-12-18T02:34:00;99754.31;;;-7.33;100.00
59531;BME280;45349;48.692;8.186;2022-12-18T02:36:32;99753.47;;;-7.32;100.00
59531;BME280;45349;48.692;8.186;2022-12-18T02:39:01;99756.84;;;-7.33;100.00
59531;BME280;45349;48.692;8.186;2022-12-18T02:41:30;99757.72;;;-7.40;100.00
59531;BME280;45349;48.692;8.186;2022-12-18T02:43:59;99753.50;;;-7.41;100.00
59531;BME280;45349;48.692;8.186;2022-12-18T02:46:31;99746.75;;;-7.41;100.00
59531;BME280;45349;48.692;8.186;2022-12-18T02:49:10;99735.81;;;-7.47;100.00
59531;BME280;45349;48.692;8.186;2022-12-18T02:51:46;99720.66;;;-7.55;100.00
59531;BME280;45349;48.692;8.186;2022-12-18T02:54:22;99735.00;;;-7.51;100.00
59531;BME280;45349;48.692;8.186;2022-12-18T02:56:55;99734.16;;;-7.48;100.00
59531;BME280;45349;48.692;8.186;2022-12-18T02:59:30;99747.63;;;-7.42;100.00
59531;BME280;45349;48.692;8.186;2022-12-18T03:02:01;99749.34;;;-7.47;100.00
59531;BME280;45349;48.692;8.186;2022-12-18T03:04:33;99752.81;;;-7.59;100.00
59531;BME280;45349;48.692;8.186;2022-12-18T03:07:05;99756.19;;;-7.64;100.00
59531;BME280;45349;48.692;8.186;2022-12-18T03:09:36;99769.78;;;-7.73;100.00
59531;BME280;45349;48.692;8.186;2022-12-18T03:12:13;99769.78;;;-7.76;100.00
59531;BME280;45349;48.692;8.186;2022-12-18T03:14:55;99768.09;;;-7.77;100.00
59531;BME280;45349;48.692;8.186;2022-12-18T03:17:27;99769.75;;;-7.70;100.00
59531;BME280;45349;48.692;8.186;2022-12-18T03:19:58;99769.72;;;-7.64;100.00
59531;BME280;45349;48.692;8.186;2022-12-18T03:22:32;99773.06;;;-7.52;100.00
59531;BME280;45349;48.692;8.186;2022-12-18T03:25:04;99770.50;;;-7.51;100.00
59531;BME280;45349;48.692;8.186;2022-12-18T03:27:37;99762.97;;;-7.66;100.00
59531;BME280;45349;48.692;8.186;2022-12-18T03:30:10;99757.06;;;-7.67;100.00
59531;BME280;45349;48.692;8.186;2022-12-18T03:32:41;99766.38;;;-7.66;100.00
59531;BME280;45349;48.692;8.186;2022-12-18T03:35:13;99762.94;;;-7.60;100.00
59531;BME280;45349;48.692;8.186;2022-12-18T03:37:44;99761.28;;;-7.67;99.58
59531;BME280;45349;48.692;8.186;2022-12-18T03:40:11;99764.69;;;-7.70;99.09
59531;BME280;45349;48.692;8.186;2022-12-18T03:42:45;99768.03;;;-7.65;99.58
59531;BME280;45349;48.692;8.186;2022-12-18T03:45:19;99769.75;;;-7.67;98.30
59531;BME280;45349;48.692;8.186;2022-12-18T03:47:57;99773.13;;;-7.69;98.80
59531;BME280;45349;48.692;8.186;2022-12-18T03:50:29;99777.38;;;-7.70;98.31
59531;BME280;45349;48.692;8.186;2022-12-18T03:53:09;99763.84;;;-7.74;98.28
59531;BME280;45349;48.692;8.186;2022-12-18T03:55:41;99768.16;;;-7.91;97.57
59531;BME280;45349;48.692;8.186;2022-12-18T03:58:13;99767.31;;;-7.93;97.88
59531;BME280;45349;48.692;8.186;2022-12-18T04:01:02;99772.38;;;-7.92;99.07
59531;BME280;45349;48.692;8.186;2022-12-18T04:03:32;99771.50;;;-7.81;99.53
59531;BME280;45349;48.692;8.186;2022-12-18T04:06:02;99760.50;;;-7.80;98.61
59531;BME280;45349;48.692;8.186;2022-12-18T04:08:29;99761.38;;;-7.88;98.85
59531;BME280;45349;48.692;8.186;2022-12-18T04:11:03;99768.16;;;-7.87;100.00
59531;BME280;45349;48.692;8.186;2022-12-18T04:13:35;99770.66;;;-7.83;100.00
59531;BME280;45349;48.692;8.186;2022-12-18T04:16:06;99763.06;;;-7.87;100.00
59531;BME280;45349;48.692;8.186;2022-12-18T04:18:34;99756.28;;;-7.81;100.00
59531;BME280;45349;48.692;8.186;2022-12-18T04:21:01;99741.06;;;-7.80;100.00
59531;BME280;45349;48.692;8.186;2022-12-18T04:23:28;99738.53;;;-7.78;100.00
59531;BME280;45349;48.692;8.186;2022-12-18T04:25:57;99731.81;;;-7.89;100.00
59531;BME280;45349;48.692;8.186;2022-12-18T04:28:41;99725.03;;;-7.83;100.00
59531;BME280;45349;48.692;8.186;2022-12-18T04:31:08;99731.78;;;-7.79;100.00
59531;BME280;45349;48.692;8.186;2022-12-18T04:33:35;99731.75;;;-7.76;100.00
59531;BME280;45349;48.692;8.186;2022-12-18T04:36:03;99736.84;;;-7.79;100.00
59531;BME280;45349;48.692;8.186;2022-12-18T04:38:29;99737.69;;;-7.77;100.00
59531;BME280;45349;48.692;8.186;2022-12-18T04:41:03;99745.28;;;-7.77;100.00
59531;BME280;45349;48.692;8.186;2022-12-18T04:43:30;99741.94;;;-7.90;100.00
59531;BME280;45349;48.692;8.186;2022-12-18T04:46:03;99757.16;;;-7.90;100.00
59531;BME280;45349;48.692;8.186;2022-12-18T04:48:30;99762.25;;;-7.92;100.00
59531;BME280;45349;48.692;8.186;2022-12-18T04:51:00;99763.91;;;-7.86;100.00
59531;BME280;45349;48.692;8.186;2022-12-18T04:53:27;99756.34;;;-7.91;100.00
59531;BME280;45349;48.692;8.186;2022-12-18T04:56:02;99749.53;;;-7.87;100.00
59531;BME280;45349;48.692;8.186;2022-12-18T04:58:29;99760.53;;;-7.83;100.00
59531;BME280;45349;48.692;8.186;2022-12-18T05:00:55;99766.44;;;-7.84;100.00
59531;BME280;45349;48.692;8.186;2022-12-18T05:03:23;99763.97;;;-8.03;99.87
59531;BME280;45349;48.692;8.186;2022-12-18T05:05:50;99767.34;;;-8.01;99.54
59531;BME280;45349;48.692;8.186;2022-12-18T05:08:17;99760.63;;;-8.08;99.07
59531;BME280;45349;48.692;8.186;2022-12-18T05:10:44;99767.38;;;-8.06;100.00
59531;BME280;45349;48.692;8.186;2022-12-18T05:13:10;99782.56;;;-8.04;100.00
59531;BME280;45349;48.692;8.186;2022-12-18T05:15:37;99764.00;;;-8.02;99.86
59531;BME280;45349;48.692;8.186;2022-12-18T05:18:04;99765.66;;;-8.02;98.90
59531;BME280;45349;48.692;8.186;2022-12-18T05:20:32;99771.63;;;-8.08;97.65
59531;BME280;45349;48.692;8.186;2022-12-18T05:22:58;99758.13;;;-8.24;97.53
59531;BME280;45349;48.692;8.186;2022-12-18T05:25:25;99759.00;;;-8.30;97.56
59531;BME280;45349;48.692;8.186;2022-12-18T05:27:51;99770.81;;;-8.27;97.84
59531;BME280;45349;48.692;8.186;2022-12-18T05:30:18;99770.78;;;-8.13;98.61
59531;BME280;45349;48.692;8.186;2022-12-18T05:32:44;99770.75;;;-8.07;97.86
59531;BME280;45349;48.692;8.186;2022-12-18T05:35:11;99759.75;;;-8.04;96.97
59531;BME280;45349;48.692;8.186;2022-12-18T05:37:39;99759.75;;;-7.99;97.01
59531;BME280;45349;48.692;8.186;2022-12-18T05:40:07;99765.63;;;-7.93;96.94
59531;BME280;45349;48.692;8.186;2022-12-18T05:42:33;99762.25;;;-7.89;97.70
59531;BME280;45349;48.692;8.186;2022-12-18T05:45:00;99760.53;;;-7.88;96.49
59531;BME280;45349;48.692;8.186;2022-12-18T05:47:26;99763.91;;;-7.88;97.82
59531;BME280;45349;48.692;8.186;2022-12-18T05:49:53;99758.88;;;-7.94;97.31
59531;BME280;45349;48.692;8.186;2022-12-18T05:52:20;99764.84;;;-7.99;96.15
59531;BME280;45349;48.692;8.186;2022-12-18T05:54:48;99773.31;;;-8.11;97.94
59531;BME280;45349;48.692;8.186;2022-12-18T05:57:15;99780.09;;;-8.15;100.00
59531;BME280;45349;48.692;8.186;2022-12-18T05:59:41;99772.47;;;-8.13;99.52
59531;BME280;45349;48.692;8.186;2022-12-18T06:02:08;99775.91;;;-8.38;98.98
59531;BME280;45349;48.692;8.186;2022-12-18T06:04:34;99778.44;;;-8.35;100.00
59531;BME280;45349;48.692;8.186;2022-12-18T06:07:04;99782.69;;;-8.46;99.32
59531;BME280;45349;48.692;8.186;2022-12-18T06:09:30;99796.16;;;-8.46;100.00
59531;BME280;45349;48.692;8.186;2022-12-18T06:11:59;99802.06;;;-8.33;100.00
59531;BME280;45349;48.692;8.186;2022-12-18T06:14:26;99810.50;;;-8.34;99.95
59531;BME280;45349;48.692;8.186;2022-12-18T06:16:53;99813.88;;;-8.33;100.00
59531;BME280;45349;48.692;8.186;2022-12-18T06:19:19;99823.16;;;-8.29;99.77
59531;BME280;45349;48.692;8.186;2022-12-18T06:21:46;99823.19;;;-8.46;99.01
59531;BME280;45349;48.692;8.186;2022-12-18T06:24:12;99829.97;;;-8.54;99.10
59531;BME280;45349;48.692;8.186;2022-12-18T06:26:39;99824.91;;;-8.64;98.71
59531;BME280;45349;48.692;8.186;2022-12-18T06:29:08;99824.94;;;-8.56;99.32
59531;BME280;45349;48.692;8.186;2022-12-18T06:31:34;99824.06;;;-8.56;99.59
59531;BME280;45349;48.692;8.186;2022-12-18T06:34:02;99829.13;;;-8.50;100.00
59531;BME280;45349;48.692;8.186;2022-12-18T06:36:29;99821.50;;;-8.47;100.00
59531;BME280;45349;48.692;8.186;2022-12-18T06:38:56;99827.41;;;-8.39;100.00
59531;BME280;45349;48.692;8.186;2022-12-18T06:41:23;99830.75;;;-8.29;100.00
59531;BME280;45349;48.692;8.186;2022-12-18T06:43:50;99828.25;;;-8.27;100.00
59531;BME280;45349;48.692;8.186;2022-12-18T06:46:18;99829.91;;;-8.23;99.58
59531;BME280;45349;48.692;8.186;2022-12-18T06:48:46;99826.56;;;-8.32;97.90
59531;BME280;45349;48.692;8.186;2022-12-18T06:51:16;99824.88;;;-8.43;96.72
59531;BME280;45349;48.692;8.186;2022-12-18T06:53:42;99829.94;;;-8.47;97.50
59531;BME280;45349;48.692;8.186;2022-12-18T06:56:09;99835.06;;;-8.56;96.59
59531;BME280;45349;48.692;8.186;2022-12-18T06:58:35;99829.13;;;-8.63;97.99
59531;BME280;45349;48.692;8.186;2022-12-18T07:01:03;99829.97;;;-8.57;98.44
59531;BME280;45349;48.692;8.186;2022-12-18T07:03:31;99825.75;;;-8.62;97.48
59531;BME280;45349;48.692;8.186;2022-12-18T07:05:57;99825.78;;;-8.63;96.86
59531;BME280;45349;48.692;8.186;2022-12-18T07:08:24;99829.97;;;-8.76;94.87
59531;BME280;45349;48.692;8.186;2022-12-18T07:10:51;99826.63;;;-8.70;95.68
59531;BME280;45349;48.692;8.186;2022-12-18T07:13:18;99827.44;;;-8.82;93.94
59531;BME280;45349;48.692;8.186;2022-12-18T07:15:44;99827.47;;;-8.90;93.57
59531;BME280;45349;48.692;8.186;2022-12-18T07:18:11;99829.13;;;-9.08;92.62
59531;BME280;45349;48.692;8.186;2022-12-18T07:20:39;99829.13;;;-9.12;93.60
59531;BME280;45349;48.692;8.186;2022-12-18T07:23:05;99827.38;;;-9.27;94.35
59531;BME280;45349;48.692;8.186;2022-12-18T07:25:33;99833.31;;;-9.24;93.58
59531;BME280;45349;48.692;8.186;2022-12-18T07:28:00;99840.06;;;-9.15;95.14
59531;BME280;45349;48.692;8.186;2022-12-18T07:30:26;99840.09;;;-9.13;95.08
59531;BME280;45349;48.692;8.186;2022-12-18T07:32:53;99838.38;;;-9.13;96.96
59531;BME280;45349;48.692;8.186;2022-12-18T07:35:20;99834.19;;;-9.08;97.23
59531;BME280;45349;48.692;8.186;2022-12-18T07:37:48;99835.88;;;-9.03;99.25
59531;BME280;45349;48.692;8.186;2022-12-18T07:40:14;99832.50;;;-8.98;98.94
59531;BME280;45349;48.692;8.186;2022-12-18T07:42:42;99843.47;;;-8.97;96.53
59531;BME280;45349;48.692;8.186;2022-12-18T07:45:09;99848.50;;;-9.10;93.52
59531;BME280;45349;48.692;8.186;2022-12-18T07:47:36;99849.31;;;-9.28;91.29
59531;BME280;45349;48.692;8.186;2022-12-18T07:50:03;99856.03;;;-9.38;91.93
59531;BME280;45349;48.692;8.186;2022-12-18T07:52:30;99852.59;;;-9.60;90.56
59531;BME280;45349;48.692;8.186;2022-12-18T07:54:58;99856.78;;;-9.70;90.06
59531;BME280;45349;48.692;8.186;2022-12-18T07:57:24;99871.78;;;-9.93;89.50
59531;BME280;45349;48.692;8.186;2022-12-18T07:59:51;99874.25;;;-10.02;89.56
59531;BME280;45349;48.692;8.186;2022-12-18T08:02:17;99881.03;;;-9.98;89.55
59531;BME280;45349;48.692;8.186;2022-12-18T08:04:44;99876.91;;;-9.81;90.08
59531;BME280;45349;48.692;8.186;2022-12-18T08:07:11;99880.41;;;-9.61;91.48
59531;BME280;45349;48.692;8.186;2022-12-18T08:09:37;99872.88;;;-9.40;92.10
59531;BME280;45349;48.692;8.186;2022-12-18T08:12:05;99878.03;;;-9.10;94.13
59531;BME280;45349;48.692;8.186;2022-12-18T08:14:32;99867.94;;;-8.82;95.34
59531;BME280;45349;48.692;8.186;2022-12-18T08:16:59;99874.72;;;-8.58;95.60
59531;BME280;45349;48.692;8.186;2022-12-18T08:19:25;99872.13;;;-8.36;95.21
59531;BME280;45349;48.692;8.186;2022-12-18T08:21:52;99862.00;;;-8.21;95.43
59531;BME280;45349;48.692;8.186;2022-12-18T08:24:18;99859.44;;;-8.05;94.76
59531;BME280;45349;48.692;8.186;2022-12-18T08:26:45;99859.47;;;-8.10;95.90
59531;BME280;45349;48.692;8.186;2022-12-18T08:29:13;99856.84;;;-7.91;96.49
59531;BME280;45349;48.692;8.186;2022-12-18T08:31:39;99858.50;;;-7.76;94.13
59531;BME280;45349;48.692;8.186;2022-12-18T08:34:07;99854.25;;;-7.69;92.25
59531;BME280;45349;48.692;8.186;2022-12-18T08:36:34;99855.03;;;-7.52;90.53
59531;BME280;45349;48.692;8.186;2022-12-18T08:39:00;99841.59;;;-7.73;90.12
59531;BME280;45349;48.692;8.186;2022-12-18T08:41:27;99844.09;;;-7.59;91.42
59531;BME280;45349;48.692;8.186;2022-12-18T08:43:54;99837.31;;;-7.61;90.54
59531;BME280;45349;48.692;8.186;2022-12-18T08:46:41;99829.72;;;-7.57;90.03
59531;BME280;45349;48.692;8.186;2022-12-18T08:49:09;99821.28;;;-7.59;87.96
59531;BME280;45349;48.692;8.186;2022-12-18T08:51:36;99813.72;;;-7.74;87.52
59531;BME280;45349;48.692;8.186;2022-12-18T08:54:04;99812.13;;;-7.95;85.27
59531;BME280;45349;48.692;8.186;2022-12-18T08:56:31;99823.13;;;-8.07;84.90
59531;BME280;45349;48.692;8.186;2022-12-18T08:58:58;99815.53;;;-8.13;85.41
59531;BME280;45349;48.692;8.186;2022-12-18T09:01:24;99821.44;;;-8.08;86.52
59531;BME280;45349;48.692;8.186;2022-12-18T09:03:52;99823.97;;;-8.10;85.94
59531;BME280;45349;48.692;8.186;2022-12-18T09:06:20;99824.00;;;-8.21;85.62
59531;BME280;45349;48.692;8.186;2022-12-18T09:08:47;99829.06;;;-8.19;86.05
59531;BME280;45349;48.692;8.186;2022-12-18T09:11:18;99827.38;;;-8.20;85.28
59531;BME280;45349;48.692;8.186;2022-12-18T09:13:45;99838.34;;;-8.20;85.97
59531;BME280;45349;48.692;8.186;2022-12-18T09:16:12;99840.88;;;-8.10;87.61
59531;BME280;45349;48.692;8.186;2022-12-18T09:18:38;99852.63;;;-7.91;86.83
59531;BME280;45349;48.692;8.186;2022-12-18T09:21:11;99851.75;;;-7.79;86.32
59531;BME280;45349;48.692;8.186;2022-12-18T09:23:39;99859.28;;;-7.54;87.71
59531;BME280;45349;48.692;8.186;2022-12-18T09:26:06;99868.47;;;-7.31;87.37
59531;BME280;45349;48.692;8.186;2022-12-18T09:28:33;99875.22;;;-7.30;88.02
59531;BME280;45349;48.692;8.186;2022-12-18T09:31:04;99872.84;;;-7.60;89.22
59531;BME280;45349;48.692;8.186;2022-12-18T09:33:30;99876.94;;;-7.34;90.45
59531;BME280;45349;48.692;8.186;2022-12-18T09:35:57;99873.47;;;-7.13;90.90
59531;BME280;45349;48.692;8.186;2022-12-18T09:38:25;99883.47;;;-6.92;90.70
59531;BME280;45349;48.692;8.186;2022-12-18T09:40:54;99884.28;;;-6.86;90.14
59531;BME280;45349;48.692;8.186;2022-12-18T09:43:26;99884.38;;;-6.98;89.98
59531;BME280;45349;48.692;8.186;2022-12-18T09:45:58;99881.78;;;-6.90;90.68
59531;BME280;45349;48.692;8.186;2022-12-18T09:48:29;99876.63;;;-6.83;90.26
59531;BME280;45349;48.692;8.186;2022-12-18T09:51:00;99889.31;;;-6.78;90.04
59531;BME280;45349;48.692;8.186;2022-12-18T09:53:32;99890.88;;;-6.60;89.83
59531;BME280;45349;48.692;8.186;2022-12-18T09:56:01;99897.56;;;-6.48;89.37
59531;BME280;45349;48.692;8.186;2022-12-18T09:58:33;99906.13;;;-6.61;89.40
59531;BME280;45349;48.692;8.186;2022-12-18T10:01:01;99909.56;;;-6.69;90.19
59531;BME280;45349;48.692;8.186;2022-12-18T10:03:28;99911.97;;;-6.48;89.50
59531;BME280;45349;48.692;8.186;2022-12-18T10:06:04;99907.53;;;-6.25;89.27
59531;BME280;45349;48.692;8.186;2022-12-18T10:08:42;99908.28;;;-6.13;88.07
59531;BME280;45349;48.692;8.186;2022-12-18T10:11:24;99914.00;;;-5.93;87.04
59531;BME280;45349;48.692;8.186;2022-12-18T10:13:57;99901.94;;;-5.75;86.27
59531;BME280;45349;48.692;8.186;2022-12-18T10:16:31;99891.66;;;-5.66;85.22
59531;BME280;45349;48.692;8.186;2022-12-18T10:19:09;99875.66;;;-5.74;84.42
59531;BME280;45349;48.692;8.186;2022-12-18T10:21:45;99874.13;;;-5.89;85.10
59531;BME280;45349;48.692;8.186;2022-12-18T10:24:20;99863.22;;;-5.99;84.83
59531;BME280;45349;48.692;8.186;2022-12-18T10:26:48;99854.03;;;-6.11;85.58
59531;BME280;45349;48.692;8.186;2022-12-18T10:29:16;99850.09;;;-6.41;86.49
59531;BME280;45349;48.692;8.186;2022-12-18T10:31:43;99853.59;;;-6.56;87.75
59531;BME280;45349;48.692;8.186;2022-12-18T10:34:10;99855.38;;;-6.64;88.25
59531;BME280;45349;48.692;8.186;2022-12-18T10:36:37;99855.03;;;-6.26;89.66
59531;BME280;45349;48.692;8.186;2022-12-18T10:39:19;99861.69;;;-6.14;87.52
59531;BME280;45349;48.692;8.186;2022-12-18T10:41:47;99842.91;;;-6.00;87.86
59531;BME280;45349;48.692;8.186;2022-12-18T10:44:17;99856.06;;;-5.66;88.67
59531;BME280;45349;48.692;8.186;2022-12-18T10:46:49;99863.75;;;-5.03;85.86
59531;BME280;45349;48.692;8.186;2022-12-18T10:49:21;99856.06;;;-5.00;84.42
59531;BME280;45349;48.692;8.186;2022-12-18T10:51:49;99860.94;;;-4.84;84.70
59531;BME280;45349;48.692;8.186;2022-12-18T10:54:19;99856.75;;;-4.87;84.67
59531;BME280;45349;48.692;8.186;2022-12-18T10:56:47;99855.16;;;-4.94;84.00
59531;BME280;45349;48.692;8.186;2022-12-18T10:59:15;99856.88;;;-4.98;84.93
59531;BME280;45349;48.692;8.186;2022-12-18T11:01:48;99852.72;;;-4.47;85.52
59531;BME280;45349;48.692;8.186;2022-12-18T11:04:18;99856.34;;;-4.12;83.50
59531;BME280;45349;48.692;8.186;2022-12-18T11:06:55;99859.75;;;-4.11;81.37
59531;BME280;45349;48.692;8.186;2022-12-18T11:09:25;99860.22;;;-4.39;82.67
59531;BME280;45349;48.692;8.186;2022-12-18T11:11:54;99864.06;;;-4.68;83.06
59531;BME280;45349;48.692;8.186;2022-12-18T11:14:22;99859.69;;;-4.60;85.02
59531;BME280;45349;48.692;8.186;2022-12-18T11:16:51;99854.59;;;-4.60;84.31
59531;BME280;45349;48.692;8.186;2022-12-18T11:19:28;99856.19;;;-4.53;85.65
59531;BME280;45349;48.692;8.186;2022-12-18T11:21:56;99858.63;;;-4.47;83.24
59531;BME280;45349;48.692;8.186;2022-12-18T11:24:28;99866.84;;;-4.29;82.14
59531;BME280;45349;48.692;8.186;2022-12-18T11:26:56;99862.31;;;-4.11;82.83
59531;BME280;45349;48.692;8.186;2022-12-18T11:29:28;99854.44;;;-3.99;83.66
59531;BME280;45349;48.692;8.186;2022-12-18T11:32:20;99848.63;;;-4.07;81.14
59531;BME280;45349;48.692;8.186;2022-12-18T11:34:52;99852.41;;;-3.81;82.86
59531;BME280;45349;48.692;8.186;2022-12-18T11:37:22;99853.94;;;-3.73;81.69
59531;BME280;45349;48.692;8.186;2022-12-18T11:39:54;99842.69;;;-3.64;80.29
59531;BME280;45349;48.692;8.186;2022-12-18T11:42:24;99836.94;;;-3.74;79.75
59531;BME280;45349;48.692;8.186;2022-12-18T11:44:57;99831.81;;;-4.19;81.64
59531;BME280;45349;48.692;8.186;2022-12-18T11:47:29;99816.41;;;-4.11;81.75
59531;BME280;45349;48.692;8.186;2022-12-18T11:50:02;99818.91;;;-4.08;82.89
59531;BME280;45349;48.692;8.186;2022-12-18T11:52:36;99819.44;;;-3.92;82.71
59531;BME280;45349;48.692;8.186;2022-12-18T11:55:11;99816.69;;;-3.81;81.52
59531;BME280;45349;48.692;8.186;2022-12-18T11:57:45;99819.78;;;-3.67;82.16
59531;BME280;45349;48.692;8.186;2022-12-18T12:00:16;99820.88;;;-3.79;81.37
59531;BME280;45349;48.692;8.186;2022-12-18T12:03:22;99806.56;;;-3.44;81.93
59531;BME280;45349;48.692;8.186;2022-12-18T12:06:00;99797.47;;;-3.57;79.61
59531;BME280;45349;48.692;8.186;2022-12-18T12:08:41;99792.13;;;-3.45;80.25
59531;BME280;45349;48.692;8.186;2022-12-18T12:11:20;99801.88;;;-3.24;79.93
59531;BME280;45349;48.692;8.186;2022-12-18T12:14:08;99799.06;;;-3.12;80.08
59531;BME280;45349;48.692;8.186;2022-12-18T12:16:47;99799.16;;;-3.56;78.97
59531;BME280;45349;48.692;8.186;2022-12-18T12:19:27;99815.03;;;-3.43;80.11
59531;BME280;45349;48.692;8.186;2022-12-18T12:22:05;99823.03;;;-3.19;79.75
59531;BME280;45349;48.692;8.186;2022-12-18T12:24:42;99812.06;;;-3.23;79.96
59531;BME280;45349;48.692;8.186;2022-12-18T12:27:17;99811.59;;;-3.41;79.97
59531;BME280;45349;48.692;8.186;2022-12-18T12:29:54;99804.75;;;-3.38;80.14
59531;BME280;45349;48.692;8.186;2022-12-18T12:32:36;99804.47;;;-3.26;79.96
59531;BME280;45349;48.692;8.186;2022-12-18T12:35:15;99805.91;;;-3.14;80.44
59531;BME280;45349;48.692;8.186;2022-12-18T12:37:54;99815.13;;;-3.08;80.64
59531;BME280;45349;48.692;8.186;2022-12-18T12:40:28;99813.44;;;-3.08;79.99
59531;BME280;45349;48.692;8.186;2022-12-18T12:43:03;99807.78;;;-3.22;78.21
59531;BME280;45349;48.692;8.186;2022-12-18T12:45:44;99811.03;;;-3.16;80.93
59531;BME280;45349;48.692;8.186;2022-12-18T12:48:17;99815.19;;;-3.12;81.13
59531;BME280;45349;48.692;8.186;2022-12-18T12:50:46;99806.03;;;-3.19;79.90
59531;BME280;45349;48.692;8.186;2022-12-18T12:53:23;99798.38;;;-3.19;79.47
59531;BME280;45349;48.692;8.186;2022-12-18T12:55:52;99794.16;;;-3.21;82.50
59531;BME280;45349;48.692;8.186;2022-12-18T12:58:26;99785.34;;;-3.09;81.93
59531;BME280;45349;48.692;8.186;2022-12-18T13:01:02;99787.47;;;-2.91;81.48
59531;BME280;45349;48.692;8.186;2022-12-18T13:03:41;99778.44;;;-3.04;81.50
59531;BME280;45349;48.692;8.186;2022-12-18T13:06:18;99775.03;;;-3.05;80.37
59531;BME280;45349;48.692;8.186;2022-12-18T13:08:54;99770.16;;;-3.16;79.97
59531;BME280;45349;48.692;8.186;2022-12-18T13:11:38;99752.41;;;-3.19;81.38